createdAt,value
2022-12-04T00:00:37.606Z,-0.41
2022-12-04T00:03:19.333Z,-0.42
2022-12-04T00:05:47.380Z,-0.46
2022-12-04T00:08:15.330Z,-0.59
2022-12-04T00:10:43.984Z,-0.61
2022-12-04T00:13:12.027Z,-0.71
2022-12-04T00:15:43.315Z,-0.64
2022-12-04T00:18:11.187Z,-0.65
2022-12-04T00:20:40.490Z,-0.66
2022-12-04T00:23:08.390Z,-0.63
2022-12-04T00:25:40.949Z,-0.65
2022-12-04T00:28:09.458Z,-0.64
2022-12-04T00:30:41.119Z,-0.58
2022-12-04T00:33:09.101Z,-0.50
2022-12-04T00:35:37.075Z,-0.44
2022-12-04T00:38:05.154Z,-0.41
2022-12-04T00:40:33.184Z,-0.49
2022-12-04T00:43:01.285Z,-0.48
2022-12-04T00:45:29.213Z,-0.48
2022-12-04T00:47:57.260Z,-0.51
2022-12-04T00:50:25.143Z,-0.53
2022-12-04T00:52:53.103Z,-0.51
2022-12-04T00:55:21.169Z,-0.53
2022-12-04T00:57:49.296Z,-0.61
2022-12-04T01:00:18.604Z,-0.61
2022-12-04T01:02:46.737Z,-0.63
2022-12-04T01:05:14.893Z,-0.72
2022-12-04T01:07:42.885Z,-0.69
2022-12-04T01:10:12.285Z,-0.67
2022-12-04T01:12:40.445Z,-0.58
2022-12-04T01:15:08.836Z,-0.54
2022-12-04T01:17:36.792Z,-0.54
2022-12-04T01:20:05.202Z,-0.52
2022-12-04T01:22:33.189Z,-0.50
2022-12-04T01:25:01.167Z,-0.48
2022-12-04T01:27:29.142Z,-0.58
2022-12-04T01:29:57.286Z,-0.57
2022-12-04T01:32:25.486Z,-0.59
2022-12-04T01:34:53.501Z,-0.63
2022-12-04T01:37:21.674Z,-0.53
2022-12-04T01:39:49.781Z,-0.46
2022-12-04T01:42:17.730Z,-0.47
2022-12-04T01:45:05.554Z,-0.42
2022-12-04T01:47:33.554Z,-0.37
2022-12-04T01:50:01.453Z,-0.37
2022-12-04T01:52:29.449Z,-0.36
2022-12-04T01:55:00.790Z,-0.39
2022-12-04T01:57:31.448Z,-0.34
2022-12-04T02:00:01.957Z,-0.43
2022-12-04T02:02:33.884Z,-0.45
2022-12-04T02:05:06.740Z,-0.42
2022-12-04T02:07:35.445Z,-0.47
2022-12-04T02:10:08.914Z,-0.53
2022-12-04T02:12:55.835Z,-0.48
2022-12-04T02:15:23.674Z,-0.34
2022-12-04T02:18:00.232Z,-0.32
2022-12-04T02:20:47.147Z,-0.25
2022-12-04T02:23:21.071Z,-0.29
2022-12-04T02:26:07.765Z,-0.38
2022-12-04T02:28:45.288Z,-0.37
2022-12-04T02:31:16.708Z,-0.36
2022-12-04T02:33:48.010Z,-0.29
2022-12-04T02:36:19.671Z,-0.30
2022-12-04T02:39:00.736Z,-0.34
2022-12-04T02:41:36.811Z,-0.34
2022-12-04T02:44:25.975Z,-0.24
2022-12-04T02:46:57.432Z,-0.27
2022-12-04T02:49:28.686Z,-0.34
2022-12-04T02:51:58.331Z,-0.34
2022-12-04T02:54:31.919Z,-0.33
2022-12-04T02:57:01.835Z,-0.37
2022-12-04T02:59:33.605Z,-0.47
2022-12-04T03:02:06.430Z,-0.47
2022-12-04T03:04:35.088Z,-0.53
2022-12-04T03:07:06.749Z,-0.59
2022-12-04T03:09:40.076Z,-0.72
2022-12-04T03:12:21.553Z,-0.67
2022-12-04T03:14:58.770Z,-0.66
2022-12-04T03:18:02.037Z,-0.65
2022-12-04T03:20:32.287Z,-0.59
2022-12-04T03:23:03.441Z,-0.55
2022-12-04T03:25:37.609Z,-0.45
2022-12-04T03:28:07.615Z,-0.41
2022-12-04T03:30:39.491Z,-0.31
2022-12-04T03:33:10.726Z,-0.35
2022-12-04T03:35:49.151Z,-0.37
2022-12-04T03:38:17.453Z,-0.31
2022-12-04T03:41:00.484Z,-0.37
2022-12-04T03:43:28.435Z,-0.33
2022-12-04T03:46:00.191Z,-0.39
2022-12-04T03:48:31.762Z,-0.42
2022-12-04T03:51:26.266Z,-0.63
2022-12-04T03:54:02.538Z,-0.66
2022-12-04T03:56:33.080Z,-0.76
2022-12-04T03:59:05.363Z,-0.83
2022-12-04T04:01:36.291Z,-0.86
2022-12-04T04:04:07.677Z,-0.98
2022-12-04T04:06:40.864Z,-1.01
2022-12-04T04:09:14.611Z,-0.86
2022-12-04T04:12:02.767Z,-0.88
2022-12-04T04:14:49.663Z,-0.93
2022-12-04T04:17:40.882Z,-0.96
2022-12-04T04:20:31.156Z,-0.99
2022-12-04T04:23:19.214Z,-1.04
2022-12-04T04:25:47.521Z,-1.17
2022-12-04T04:28:28.930Z,-1.11
2022-12-04T04:31:02.474Z,-1.09
2022-12-04T04:33:31.524Z,-1.08
2022-12-04T04:36:19.616Z,-1.12
2022-12-04T04:39:00.663Z,-1.29
2022-12-04T04:41:28.543Z,-1.30
2022-12-04T04:44:21.738Z,-1.36
2022-12-04T04:46:56.446Z,-1.31
2022-12-04T04:49:26.932Z,-1.26
2022-12-04T04:51:55.383Z,-1.33
2022-12-04T04:54:23.968Z,-1.39
2022-12-04T04:56:51.821Z,-1.30
2022-12-04T04:59:19.845Z,-1.27
2022-12-04T05:01:48.081Z,-1.36
2022-12-04T05:04:16.297Z,-1.54
2022-12-04T05:06:44.413Z,-1.53
2022-12-04T05:09:12.451Z,-1.53
2022-12-04T05:11:40.531Z,-1.59
2022-12-04T05:14:09.847Z,-1.45
2022-12-04T05:16:39.204Z,-1.56
2022-12-04T05:19:26.291Z,-1.56
2022-12-04T05:21:54.464Z,-1.46
2022-12-04T05:24:22.556Z,-1.35
2022-12-04T05:26:50.395Z,-1.35
2022-12-04T05:29:18.220Z,-1.41
2022-12-04T05:31:46.153Z,-1.32
2022-12-04T05:34:14.086Z,-1.22
2022-12-04T05:36:42.146Z,-1.16
2022-12-04T05:39:10.187Z,-1.25
2022-12-04T05:41:38.161Z,-1.31
2022-12-04T05:44:06.081Z,-1.26
2022-12-04T05:46:34.318Z,-1.23
2022-12-04T05:49:02.346Z,-1.26
2022-12-04T05:51:30.235Z,-1.35
2022-12-04T05:53:58.196Z,-1.33
2022-12-04T05:56:26.281Z,-1.25
2022-12-04T05:58:54.291Z,-1.16
2022-12-04T06:01:23.976Z,-1.16
2022-12-04T06:03:52.260Z,-1.17
2022-12-04T06:06:22.682Z,-1.23
2022-12-04T06:08:55.067Z,-1.18
2022-12-04T06:11:24.698Z,-1.15
2022-12-04T06:13:53.296Z,-1.07
2022-12-04T06:16:26.261Z,-1.03
2022-12-04T06:18:55.771Z,-0.97
2022-12-04T06:21:24.909Z,-0.96
2022-12-04T06:23:53.262Z,-0.97
2022-12-04T06:26:21.956Z,-1.02
2022-12-04T06:28:50.486Z,-1.04
2022-12-04T06:31:19.244Z,-0.98
2022-12-04T06:33:47.571Z,-0.92
2022-12-04T06:36:17.391Z,-0.98
2022-12-04T06:38:45.779Z,-1.07
2022-12-04T06:41:14.690Z,-1.12
2022-12-04T06:43:42.715Z,-1.09
2022-12-04T06:46:12.581Z,-1.09
2022-12-04T06:48:41.160Z,-1.02
2022-12-04T06:51:11.151Z,-0.95
2022-12-04T06:53:39.172Z,-0.93
2022-12-04T06:56:08.559Z,-1.07
2022-12-04T06:58:36.708Z,-1.20
2022-12-04T07:01:08.426Z,-1.15
2022-12-04T07:03:36.692Z,-1.11
2022-12-04T07:06:27.953Z,-1.15
2022-12-04T07:08:59.171Z,-1.14
2022-12-04T07:11:27.496Z,-1.30
2022-12-04T07:13:55.883Z,-1.41
2022-12-04T07:16:25.117Z,-1.35
2022-12-04T07:18:59.425Z,-1.36
2022-12-04T07:21:28.883Z,-1.38
2022-12-04T07:23:58.264Z,-1.31
2022-12-04T07:26:27.217Z,-1.31
2022-12-04T07:28:55.699Z,-1.18
2022-12-04T07:31:24.367Z,-1.12
2022-12-04T07:33:54.100Z,-1.10
2022-12-04T07:36:23.499Z,-1.07
2022-12-04T07:38:52.060Z,-1.03
2022-12-04T07:41:20.340Z,-0.97
2022-12-04T07:43:48.348Z,-0.94
2022-12-04T07:46:20.760Z,-0.83
2022-12-04T07:48:48.878Z,-0.75
2022-12-04T07:51:18.547Z,-0.77
2022-12-04T07:53:46.895Z,-0.65
2022-12-04T07:56:15.366Z,-0.56
2022-12-04T07:58:44.041Z,-0.40
2022-12-04T08:01:14.374Z,-0.44
2022-12-04T08:03:47.553Z,-0.41
2022-12-04T08:06:17.651Z,-0.31
2022-12-04T08:08:46.359Z,-0.26
2022-12-04T08:11:15.930Z,-0.27
2022-12-04T08:13:44.240Z,-0.28
2022-12-04T08:16:12.786Z,-0.16
2022-12-04T08:18:41.640Z,-0.07
2022-12-04T08:21:11.008Z,-0.19
2022-12-04T08:23:40.110Z,-0.08
2022-12-04T08:26:08.987Z,-0.25
2022-12-04T08:28:37.405Z,-0.21
2022-12-04T08:31:06.368Z,-0.12
2022-12-04T08:33:34.357Z,-0.04
2022-12-04T08:36:02.649Z,-0.10
2022-12-04T08:38:30.580Z,0.07
2022-12-04T08:41:02.799Z,0.13
2022-12-04T08:43:31.119Z,0.12
2022-12-04T08:46:00.155Z,0.11
2022-12-04T08:48:28.108Z,0.12
2022-12-04T08:50:56.356Z,0.07
2022-12-04T08:53:24.530Z,0.04
2022-12-04T08:55:52.606Z,0.15
2022-12-04T08:58:20.597Z,0.31
2022-12-04T09:00:49.216Z,0.28
2022-12-04T09:03:18.637Z,0.16
2022-12-04T09:05:47.077Z,0.21
2022-12-04T09:08:16.433Z,0.23
2022-12-04T09:10:45.015Z,0.28
2022-12-04T09:13:12.940Z,0.35
2022-12-04T09:15:41.512Z,0.33
2022-12-04T09:18:10.964Z,0.37
2022-12-04T09:20:38.945Z,0.45
2022-12-04T09:23:06.925Z,0.51
2022-12-04T09:25:35.720Z,0.46
2022-12-04T09:28:04.005Z,0.48
2022-12-04T09:30:32.292Z,0.43
2022-12-04T09:33:00.201Z,0.51
2022-12-04T09:35:30.080Z,0.54
2022-12-04T09:37:59.418Z,0.58
2022-12-04T09:40:35.421Z,0.56
2022-12-04T09:43:22.251Z,0.55
2022-12-04T09:45:52.406Z,0.47
2022-12-04T09:48:22.187Z,0.58
2022-12-04T09:50:50.565Z,0.67
2022-12-04T09:53:26.835Z,0.74
2022-12-04T09:55:57.728Z,0.78
2022-12-04T09:58:28.880Z,0.81
2022-12-04T10:00:58.635Z,0.78
2022-12-04T10:03:28.580Z,0.83
2022-12-04T10:06:06.013Z,0.99
2022-12-04T10:08:36.143Z,0.97
2022-12-04T10:11:25.493Z,0.95
2022-12-04T10:13:58.719Z,1.01
2022-12-04T10:16:32.992Z,1.07
2022-12-04T10:19:20.690Z,1.09
2022-12-04T10:21:48.560Z,1.16
2022-12-04T10:24:22.710Z,1.28
2022-12-04T10:26:51.603Z,1.26
2022-12-04T10:29:19.656Z,1.35
2022-12-04T10:31:48.422Z,1.39
2022-12-04T10:34:28.360Z,1.42
2022-12-04T10:37:01.708Z,1.30
2022-12-04T10:39:35.436Z,1.32
2022-12-04T10:42:29.381Z,1.38
2022-12-04T10:44:57.338Z,1.21
2022-12-04T10:47:25.777Z,1.21
2022-12-04T10:49:58.584Z,1.34
2022-12-04T10:52:26.948Z,1.43
2022-12-04T10:54:56.485Z,1.32
2022-12-04T10:57:34.210Z,1.44
2022-12-04T11:00:02.344Z,1.54
2022-12-04T11:02:33.947Z,1.45
2022-12-04T11:05:07.105Z,1.55
2022-12-04T11:07:37.110Z,1.58
2022-12-04T11:10:07.303Z,1.52
2022-12-04T11:12:35.737Z,1.59
2022-12-04T11:15:06.556Z,1.60
2022-12-04T11:17:34.771Z,1.51
2022-12-04T11:20:05.392Z,1.61
2022-12-04T11:22:35.724Z,1.72
2022-12-04T11:25:04.108Z,1.75
2022-12-04T11:27:34.340Z,1.73
2022-12-04T11:30:07.742Z,1.75
2022-12-04T11:32:36.120Z,1.79
2022-12-04T11:35:13.623Z,1.82
2022-12-04T11:37:45.358Z,1.87
2022-12-04T11:40:18.107Z,1.84
2022-12-04T11:42:56.993Z,1.86
2022-12-04T11:45:25.188Z,1.90
2022-12-04T11:47:54.904Z,1.96
2022-12-04T11:50:30.576Z,2.09
2022-12-04T11:53:02.732Z,2.08
2022-12-04T11:55:33.569Z,2.07
2022-12-04T11:58:17.826Z,2.08
2022-12-04T12:01:05.747Z,1.99
2022-12-04T12:03:39.233Z,1.94
2022-12-04T12:06:07.247Z,1.70
2022-12-04T12:08:44.340Z,1.57
2022-12-04T12:11:18.167Z,1.75
2022-12-04T12:13:46.068Z,1.76
2022-12-04T12:16:22.364Z,1.76
2022-12-04T12:19:09.216Z,1.76
2022-12-04T12:21:37.072Z,1.77
2022-12-04T12:24:27.078Z,1.82
2022-12-04T12:27:16.366Z,1.82
2022-12-04T12:30:04.211Z,1.81
2022-12-04T12:32:43.038Z,1.80
2022-12-04T12:35:22.722Z,1.71
2022-12-04T12:37:56.340Z,1.73
2022-12-04T12:40:30.750Z,1.80
2022-12-04T12:43:06.425Z,1.82
2022-12-04T12:45:53.567Z,1.80
2022-12-04T12:48:29.185Z,1.61
2022-12-04T12:51:22.044Z,1.65
2022-12-04T12:53:51.442Z,1.77
2022-12-04T12:56:23.186Z,1.84
2022-12-04T12:58:54.016Z,1.90
2022-12-04T13:01:24.935Z,1.92
2022-12-04T13:04:06.069Z,1.98
2022-12-04T13:06:42.029Z,2.02
2022-12-04T13:09:17.039Z,1.98
2022-12-04T13:11:47.091Z,2.07
2022-12-04T13:14:15.577Z,2.10
2022-12-04T13:17:01.470Z,2.11
2022-12-04T13:19:43.430Z,2.14
2022-12-04T13:22:29.963Z,2.13
2022-12-04T13:25:07.374Z,2.19
2022-12-04T13:27:35.448Z,2.14
2022-12-04T13:30:03.319Z,2.15
2022-12-04T13:32:46.451Z,2.14
2022-12-04T13:35:20.516Z,2.12
2022-12-04T13:37:56.122Z,2.08
2022-12-04T13:40:45.320Z,2.08
2022-12-04T13:43:20.957Z,2.11
2022-12-04T13:45:51.132Z,2.13
2022-12-04T13:48:28.060Z,2.13
2022-12-04T13:51:03.284Z,2.14
2022-12-04T13:53:32.617Z,2.08
2022-12-04T13:56:06.098Z,2.11
2022-12-04T13:58:36.345Z,2.15
2022-12-04T14:01:21.588Z,2.16
2022-12-04T14:03:50.832Z,2.15
2022-12-04T14:06:24.181Z,2.15
2022-12-04T14:08:56.759Z,2.17
2022-12-04T14:11:25.400Z,2.15
2022-12-04T14:14:01.169Z,2.13
2022-12-04T14:16:39.001Z,2.18
2022-12-04T14:19:07.982Z,2.14
2022-12-04T14:21:43.529Z,2.13
2022-12-04T14:24:28.066Z,2.17
2022-12-04T14:27:11.109Z,2.20
2022-12-04T14:29:45.037Z,2.21
2022-12-04T14:32:22.534Z,2.20
2022-12-04T14:34:51.040Z,2.12
2022-12-04T14:37:23.213Z,2.12
2022-12-04T14:39:51.584Z,2.13
2022-12-04T14:42:23.303Z,2.20
2022-12-04T14:44:53.477Z,2.22
2022-12-04T14:47:40.298Z,2.24
2022-12-04T14:50:27.204Z,2.27
2022-12-04T14:53:24.480Z,2.27
2022-12-04T14:56:07.989Z,2.30
2022-12-04T14:58:38.141Z,2.33
2022-12-04T15:01:32.949Z,2.33
2022-12-04T15:04:06.522Z,2.35
2022-12-04T15:06:34.524Z,2.37
2022-12-04T15:09:23.183Z,2.40
2022-12-04T15:12:10.725Z,2.38
2022-12-04T15:14:58.856Z,2.37
2022-12-04T15:17:26.947Z,2.33
2022-12-04T15:19:55.356Z,2.22
2022-12-04T15:22:26.304Z,2.27
2022-12-04T15:24:55.694Z,2.30
2022-12-04T15:27:30.561Z,2.25
2022-12-04T15:30:03.082Z,2.26
2022-12-04T15:32:32.579Z,2.30
2022-12-04T15:35:09.256Z,2.35
2022-12-04T15:37:37.955Z,2.34
2022-12-04T15:40:07.103Z,2.34
2022-12-04T15:42:35.256Z,2.32
2022-12-04T15:45:22.814Z,2.38
2022-12-04T15:47:55.940Z,2.37
2022-12-04T15:50:27.266Z,2.31
2022-12-04T15:52:58.411Z,2.32
2022-12-04T15:55:28.330Z,2.35
2022-12-04T15:57:57.947Z,2.33
2022-12-04T16:00:30.294Z,2.26
2022-12-04T16:02:59.220Z,2.31
2022-12-04T16:05:29.652Z,2.35
2022-12-04T16:07:59.212Z,2.30
2022-12-04T16:10:28.782Z,2.32
2022-12-04T16:12:58.302Z,2.27
2022-12-04T16:15:32.310Z,2.30
2022-12-04T16:18:00.395Z,2.28
2022-12-04T16:20:28.577Z,2.27
2022-12-04T16:22:56.854Z,2.26
2022-12-04T16:25:24.783Z,2.31
2022-12-04T16:27:52.701Z,2.34
2022-12-04T16:30:20.980Z,2.37
2022-12-04T16:32:48.852Z,2.34
2022-12-04T16:35:17.311Z,2.34
2022-12-04T16:37:45.321Z,2.28
2022-12-04T16:40:14.281Z,2.27
2022-12-04T16:42:42.650Z,2.26
2022-12-04T16:45:16.647Z,2.27
2022-12-04T16:47:45.530Z,2.29
2022-12-04T16:50:13.611Z,2.25
2022-12-04T16:52:41.484Z,2.27
2022-12-04T16:55:32.810Z,2.25
2022-12-04T16:58:00.712Z,2.13
2022-12-04T17:00:28.967Z,2.22
2022-12-04T17:02:57.467Z,2.21
2022-12-04T17:05:28.421Z,2.24
2022-12-04T17:07:56.598Z,2.13
2022-12-04T17:10:24.978Z,1.99
2022-12-04T17:12:53.654Z,2.09
2022-12-04T17:15:21.820Z,2.09
2022-12-04T17:17:50.543Z,2.09
2022-12-04T17:20:19.341Z,2.03
2022-12-04T17:22:47.914Z,2.04
2022-12-04T17:25:16.584Z,2.00
2022-12-04T17:27:46.128Z,1.93
2022-12-04T17:30:14.717Z,1.86
2022-12-04T17:32:42.787Z,1.89
2022-12-04T17:35:12.315Z,1.88
2022-12-04T17:37:40.386Z,1.78
2022-12-04T17:40:10.628Z,1.83
2022-12-04T17:42:38.934Z,1.82
2022-12-04T17:45:07.625Z,1.81
2022-12-04T17:47:35.969Z,1.79
2022-12-04T17:50:07.632Z,1.77
2022-12-04T17:52:35.513Z,1.74
2022-12-04T17:55:03.795Z,1.69
2022-12-04T17:57:31.751Z,1.67
2022-12-04T17:59:59.635Z,1.63
2022-12-04T18:02:27.720Z,1.54
2022-12-04T18:04:56.627Z,1.53
2022-12-04T18:07:24.803Z,1.47
2022-12-04T18:09:52.895Z,1.36
2022-12-04T18:12:20.762Z,1.33
2022-12-04T18:14:48.728Z,1.12
2022-12-04T18:17:17.768Z,1.21
2022-12-04T18:19:45.689Z,1.15
2022-12-04T18:22:13.805Z,1.15
2022-12-04T18:24:41.669Z,1.17
2022-12-04T18:27:09.756Z,1.17
2022-12-04T18:29:37.634Z,1.17
2022-12-04T18:32:06.210Z,1.22
2022-12-04T18:34:34.309Z,1.16
2022-12-04T18:37:02.289Z,1.12
2022-12-04T18:39:30.317Z,0.98
2022-12-04T18:41:58.354Z,1.02
2022-12-04T18:44:26.449Z,0.96
2022-12-04T18:46:54.364Z,0.95
2022-12-04T18:49:22.287Z,0.86
2022-12-04T18:51:50.533Z,0.86
2022-12-04T18:54:20.378Z,0.86
2022-12-04T18:56:48.624Z,0.81
2022-12-04T18:59:18.486Z,0.79
2022-12-04T19:01:50.495Z,0.69
2022-12-04T19:04:20.599Z,0.58
2022-12-04T19:06:51.309Z,0.59
2022-12-04T19:09:35.367Z,0.63
2022-12-04T19:12:11.157Z,0.61
2022-12-04T19:14:39.930Z,0.62
2022-12-04T19:17:07.903Z,0.60
2022-12-04T19:19:36.432Z,0.53
2022-12-04T19:22:04.706Z,0.48
2022-12-04T19:24:32.790Z,0.51
2022-12-04T19:27:01.928Z,0.51
2022-12-04T19:29:30.080Z,0.52
2022-12-04T19:31:59.648Z,0.54
2022-12-04T19:34:27.841Z,0.48
2022-12-04T19:36:55.959Z,0.47
2022-12-04T19:39:23.827Z,0.48
2022-12-04T19:41:53.033Z,0.47
2022-12-04T19:47:10.401Z,0.48
2022-12-04T19:49:38.324Z,0.48
2022-12-04T19:52:06.867Z,0.48
2022-12-04T19:54:34.689Z,0.50
2022-12-04T19:57:02.670Z,0.52
2022-12-04T19:59:35.992Z,0.56
2022-12-04T20:02:05.298Z,0.56
2022-12-04T20:04:33.517Z,0.54
2022-12-04T20:07:01.594Z,0.55
2022-12-04T20:09:29.608Z,0.54
2022-12-04T20:11:57.850Z,0.53
2022-12-04T20:14:25.747Z,0.50
2022-12-04T20:16:53.662Z,0.42
2022-12-04T20:19:21.892Z,0.38
2022-12-04T20:21:56.103Z,0.39
2022-12-04T20:24:27.165Z,0.33
2022-12-04T20:26:55.141Z,0.29
2022-12-04T20:29:23.170Z,0.31
2022-12-04T20:31:51.093Z,0.24
2022-12-04T20:34:19.611Z,0.28
2022-12-04T20:36:48.385Z,0.28
2022-12-04T20:39:17.204Z,0.28
2022-12-04T20:41:45.626Z,0.31
2022-12-04T20:44:15.187Z,0.28
2022-12-04T20:46:43.300Z,0.21
2022-12-04T20:49:21.221Z,0.15
2022-12-04T20:51:51.110Z,0.20
2022-12-04T20:54:19.867Z,0.18
2022-12-04T20:56:49.180Z,0.15
2022-12-04T20:59:18.433Z,0.07
2022-12-04T21:01:46.673Z,0.02
2022-12-04T21:04:17.559Z,0.02
2022-12-04T21:06:46.864Z,-0.02
2022-12-04T21:09:16.444Z,-0.00
2022-12-04T21:11:45.569Z,0.02
2022-12-04T21:14:34.088Z,-0.02
2022-12-04T21:17:02.328Z,-0.00
2022-12-04T21:19:30.409Z,-0.03
2022-12-04T21:21:58.493Z,-0.10
2022-12-04T21:24:26.779Z,-0.14
2022-12-04T21:26:55.599Z,-0.12
2022-12-04T21:29:23.652Z,-0.13
2022-12-04T21:31:51.627Z,-0.08
2022-12-04T21:34:20.138Z,-0.13
2022-12-04T21:36:48.203Z,-0.19
2022-12-04T21:39:16.789Z,-0.15
2022-12-04T21:42:03.276Z,-0.15
2022-12-04T21:44:31.171Z,-0.19
2022-12-04T21:46:59.193Z,-0.20
2022-12-04T21:49:27.451Z,-0.21
2022-12-04T21:51:58.190Z,-0.22
2022-12-04T21:54:27.725Z,-0.26
2022-12-04T21:56:56.608Z,-0.23
2022-12-04T21:59:25.216Z,-0.28
2022-12-04T22:01:53.804Z,-0.25
2022-12-04T22:04:22.270Z,-0.22
2022-12-04T22:06:50.271Z,-0.16
2022-12-04T22:09:18.340Z,-0.09
2022-12-04T22:11:46.516Z,-0.07
2022-12-04T22:14:14.387Z,-0.06
2022-12-04T22:16:43.284Z,-0.12
2022-12-04T22:19:12.697Z,-0.12
2022-12-04T22:21:40.611Z,-0.17
2022-12-04T22:24:10.579Z,-0.16
2022-12-04T22:26:38.683Z,-0.15
2022-12-04T22:29:27.284Z,-0.21
2022-12-04T22:31:54.992Z,-0.21
2022-12-04T22:34:22.999Z,-0.18
2022-12-04T22:36:51.072Z,-0.25
2022-12-04T22:39:18.959Z,-0.20
2022-12-04T22:41:46.933Z,-0.21
2022-12-04T22:44:14.998Z,-0.23
2022-12-04T22:46:43.169Z,-0.23
2022-12-04T22:49:11.342Z,-0.18
2022-12-04T22:51:39.456Z,-0.16
2022-12-04T22:54:08.152Z,-0.17
2022-12-04T22:56:36.050Z,-0.14
2022-12-04T22:59:04.213Z,-0.11
2022-12-04T23:01:33.727Z,-0.05
2022-12-04T23:04:02.522Z,-0.11
2022-12-04T23:06:32.345Z,-0.05
2022-12-04T23:09:02.059Z,0.00
2022-12-04T23:11:29.954Z,0.04
2022-12-04T23:14:00.434Z,0.00
2022-12-04T23:16:30.305Z,0.03
2022-12-04T23:18:59.006Z,-0.05
2022-12-04T23:21:27.585Z,-0.00
2022-12-04T23:23:55.978Z,0.02
2022-12-04T23:26:25.365Z,0.03
2022-12-04T23:28:53.226Z,0.02
2022-12-04T23:31:21.168Z,-0.01
2022-12-04T23:33:49.329Z,0.01
2022-12-04T23:36:17.619Z,0.02
2022-12-04T23:38:45.605Z,0.13
2022-12-04T23:41:19.848Z,0.20
2022-12-04T23:43:48.527Z,0.28
2022-12-04T23:46:17.566Z,0.34
2022-12-04T23:48:45.939Z,0.36
2022-12-04T23:51:15.842Z,0.38
2022-12-04T23:53:44.335Z,0.42
2022-12-04T23:56:13.706Z,0.38
2022-12-04T23:58:42.440Z,0.38
